This is the latest recevied weather packets stored in our database for station/object K8BCO. If no packets are shown the sender has not sent any weather packets the latest 10 day(s).
| Time | Temp. | Humidity | Pressure | Rain* | Wind** | Luminosity | Snow |
|---|---|---|---|---|---|---|---|
| 1777399516 | 9.44° C | 67% | 1005.8 hPa | 0 mm | - | 981 W/m² | - |
| 1777398916 | 8.89° C | 69% | 1005.8 hPa | 0 mm | - | 736 W/m² | - |
| 1777398316 | 8.33° C | 70% | 1006 hPa | 0 mm | - | 413 W/m² | - |
| 1777397717 | 8.33° C | 71% | 1006 hPa | 0 mm | - | 363 W/m² | - |
| 1777397117 | 8.33° C | 71% | 1005.8 hPa | 0 mm | - | 472 W/m² | - |
| 1777396517 | 8.33° C | 72% | 1005.8 hPa | 0 mm | - | 391 W/m² | - |
| 1777395918 | 8.89° C | 71% | 1005.7 hPa | 0 mm | - | 382 W/m² | - |
| 1777395317 | 8.89° C | 70% | 1005.3 hPa | 0 mm | - | 607 W/m² | - |
| 1777394717 | 8.33° C | 72% | 1005 hPa | 0 mm | - | 559 W/m² | - |
| 1777394117 | 8.33° C | 71% | 1004.9 hPa | 0 mm | - | 415 W/m² | - |
| 1777393517 | 8.89° C | 70% | 1004.6 hPa | 0 mm | - | 412 W/m² | - |
| 1777392925 | 9.44° C | 68% | 1004.3 hPa | 0 mm | - | 582 W/m² | - |
| 1777392319 | 8.89° C | 69% | 1003.9 hPa | 0 mm | - | 616 W/m² | - |
| 1777391721 | 9.44° C | 68% | 1003.4 hPa | 0 mm | - | 814 W/m² | - |
| 1777391118 | 8.89° C | 69% | 1003.1 hPa | 0 mm | - | 867 W/m² | - |
| 1777390518 | 8.33° C | 71% | 1003 hPa | 0 mm | - | 536 W/m² | - |
| 1777389918 | 8.33° C | 72% | 1002.8 hPa | 0 mm | - | 683 W/m² | - |
| 1777389316 | 8.33° C | 72% | 1002.5 hPa | 0 mm | - | 707 W/m² | - |
| 1777388716 | 8.33° C | 72% | 1002.4 hPa | 0 mm | - | 708 W/m² | - |
| 1777388117 | 8.33° C | 73% | 1002 hPa | 0 mm | - | 641 W/m² | - |
| 1777387516 | 7.78° C | 74% | 1001.9 hPa | 0 mm | - | 554 W/m² | - |
| 1777386917 | 7.78° C | 74% | 1001.5 hPa | 0 mm | - | 497 W/m² | - |
| 1777386316 | 7.22° C | 75% | 1001.1 hPa | 0 mm | - | 552 W/m² | - |
| 1777385716 | 7.22° C | 75% | 1000.9 hPa | 0 mm | - | 484 W/m² | - |
| 1777385117 | 7.78° C | 75% | 1000.6 hPa | 0 mm | - | 485 W/m² | - |
* Rain latest hour (hover to see other rain measurements)
** Current wind speed in m/s (hover to see current wind gust speed)